createdAt,value
2023-02-27T00:02:31.946Z,99200.73
2023-02-27T00:05:24.338Z,99198.20
2023-02-27T00:08:16.505Z,99203.28
2023-02-27T00:11:08.759Z,99204.30
2023-02-27T00:14:01.230Z,99207.93
2023-02-27T00:16:53.428Z,99210.64
2023-02-27T00:19:45.599Z,99216.38
2023-02-27T00:22:26.395Z,99221.45
2023-02-27T00:25:18.683Z,99221.07
2023-02-27T00:28:10.861Z,99223.88
2023-02-27T00:30:52.826Z,99226.80
2023-02-27T00:33:45.339Z,99220.80
2023-02-27T00:36:18.157Z,99222.01
2023-02-27T00:39:10.291Z,99224.27
2023-02-27T00:42:02.445Z,99222.33
2023-02-27T00:44:54.527Z,99224.71
2023-02-27T00:47:46.684Z,99219.61
2023-02-27T00:50:38.797Z,99221.30
2023-02-27T00:53:30.907Z,99218.66
2023-02-27T00:56:23.004Z,99220.28
2023-02-27T00:59:15.206Z,99217.48
2023-02-27T01:02:07.317Z,99212.41
2023-02-27T01:04:59.398Z,99213.77
2023-02-27T01:07:39.940Z,99213.61
2023-02-27T01:10:32.203Z,99208.85
2023-02-27T01:13:24.459Z,99214.81
2023-02-27T01:16:16.598Z,99214.97
2023-02-27T01:19:08.863Z,99217.33
2023-02-27T01:22:01.018Z,99220.29
2023-02-27T01:24:53.140Z,99216.93
2023-02-27T01:27:45.418Z,99219.17
2023-02-27T01:30:37.717Z,99219.16
2023-02-27T01:33:29.977Z,99222.37
2023-02-27T01:36:22.216Z,99226.01
2023-02-27T01:39:14.277Z,99225.01
2023-02-27T01:42:07.589Z,99226.45
2023-02-27T01:45:30.200Z,99238.90
2023-02-27T01:48:25.951Z,99239.59
2023-02-27T01:51:21.109Z,99244.39
2023-02-27T01:54:16.798Z,99245.88
2023-02-27T01:57:10.101Z,99251.05
2023-02-27T02:00:02.582Z,99254.02
2023-02-27T02:03:02.648Z,99254.40
2023-02-27T02:05:56.824Z,99256.56
2023-02-27T02:08:48.772Z,99261.36
2023-02-27T02:11:42.564Z,99255.16
2023-02-27T02:14:34.659Z,99258.13
2023-02-27T02:17:40.073Z,99259.15
2023-02-27T02:20:58.823Z,99267.08
2023-02-27T02:24:29.302Z,99273.23
2023-02-27T02:27:35.596Z,99277.28
2023-02-27T02:30:58.418Z,99280.04
2023-02-27T02:34:19.527Z,99282.90
2023-02-27T02:38:04.438Z,99285.43
2023-02-27T02:41:00.263Z,99288.48
2023-02-27T02:44:05.976Z,99291.04
2023-02-27T02:47:05.987Z,99290.86
2023-02-27T02:50:03.359Z,99295.36
2023-02-27T02:53:06.096Z,99297.20
2023-02-27T02:56:05.778Z,99302.23
2023-02-27T02:59:02.926Z,99307.55
2023-02-27T03:01:59.372Z,99309.05
2023-02-27T03:04:56.978Z,99305.05
2023-02-27T03:07:54.153Z,99300.07
2023-02-27T03:10:50.561Z,99298.19
2023-02-27T03:13:47.233Z,99301.84
2023-02-27T03:16:43.508Z,99300.32
2023-02-27T03:19:42.189Z,99301.40
2023-02-27T03:22:38.598Z,99299.53
2023-02-27T03:25:32.591Z,99304.31
2023-02-27T03:28:30.087Z,99299.83
2023-02-27T03:31:28.873Z,99292.84
2023-02-27T03:34:28.436Z,99295.02
2023-02-27T03:37:28.331Z,99293.31
2023-02-27T03:40:28.849Z,99297.59
2023-02-27T03:43:31.452Z,99301.02
2023-02-27T03:46:27.787Z,99299.77
2023-02-27T03:49:19.938Z,99307.92
2023-02-27T03:52:12.349Z,99308.59
2023-02-27T03:55:10.765Z,99311.77
2023-02-27T03:58:03.389Z,99314.44
2023-02-27T04:00:55.465Z,99311.91
2023-02-27T04:03:54.910Z,99315.89
2023-02-27T04:07:12.321Z,99318.17
2023-02-27T04:10:18.251Z,99320.65
2023-02-27T04:13:34.550Z,99325.13
2023-02-27T04:16:52.010Z,99325.92
2023-02-27T04:20:00.582Z,99329.84
2023-02-27T04:23:01.018Z,99339.67
2023-02-27T04:26:08.990Z,99344.21
2023-02-27T04:29:08.446Z,99348.35
2023-02-27T04:32:07.519Z,99351.11
2023-02-27T04:35:02.884Z,99352.67
2023-02-27T04:38:00.819Z,99355.60
2023-02-27T04:40:59.119Z,99356.51
2023-02-27T04:43:54.944Z,99356.89
2023-02-27T04:46:49.214Z,99360.36
2023-02-27T04:49:46.823Z,99361.70
2023-02-27T04:52:42.724Z,99360.66
2023-02-27T04:55:40.074Z,99361.47
2023-02-27T04:58:38.298Z,99360.45
2023-02-27T05:01:36.801Z,99364.38
2023-02-27T05:04:32.528Z,99363.76
2023-02-27T05:07:27.851Z,99367.20
2023-02-27T05:10:27.944Z,99365.92
2023-02-27T05:13:27.371Z,99364.55
2023-02-27T05:16:28.017Z,99365.16
2023-02-27T05:19:21.993Z,99369.69
2023-02-27T05:22:23.671Z,99376.02
2023-02-27T05:25:24.268Z,99381.64
2023-02-27T05:28:22.771Z,99385.42
2023-02-27T05:31:22.176Z,99388.38
2023-02-27T05:34:19.937Z,99391.70
2023-02-27T05:37:17.694Z,99394.14
2023-02-27T05:40:16.402Z,99401.16
2023-02-27T05:43:12.024Z,99401.39
2023-02-27T05:46:11.505Z,99403.48
2023-02-27T05:49:07.154Z,99407.89
2023-02-27T05:52:02.637Z,99411.02
2023-02-27T05:55:00.725Z,99419.70
2023-02-27T05:57:58.986Z,99418.32
2023-02-27T06:00:55.301Z,99425.23
2023-02-27T06:03:35.496Z,99421.60
2023-02-27T06:06:27.989Z,99425.98
2023-02-27T06:09:20.539Z,99420.34
2023-02-27T06:12:12.828Z,99422.34
2023-02-27T06:15:05.016Z,99427.06
2023-02-27T06:17:58.024Z,99422.60
2023-02-27T06:20:50.432Z,99426.27
2023-02-27T06:23:42.677Z,99434.75
2023-02-27T06:26:34.780Z,99430.54
2023-02-27T06:29:11.776Z,99429.50
2023-02-27T06:32:04.078Z,99432.89
2023-02-27T06:34:56.314Z,99437.59
2023-02-27T06:37:48.362Z,99438.14
2023-02-27T06:40:40.460Z,99439.73
2023-02-27T06:43:34.728Z,99437.14
2023-02-27T06:46:27.329Z,99441.08
2023-02-27T06:49:19.633Z,99439.28
2023-02-27T06:52:11.738Z,99443.16
2023-02-27T06:55:04.736Z,99443.14
2023-02-27T06:57:56.992Z,99444.98
2023-02-27T07:00:49.082Z,99449.25
2023-02-27T07:03:41.360Z,99451.45
2023-02-27T07:07:34.791Z,99455.13
2023-02-27T07:09:45.533Z,99460.13
2023-02-27T07:12:37.689Z,99462.16
2023-02-27T07:15:29.861Z,99467.45
2023-02-27T07:18:22.187Z,99463.48
2023-02-27T07:21:15.583Z,99464.34
2023-02-27T07:24:09.352Z,99468.59
2023-02-27T07:27:01.399Z,99467.55
2023-02-27T07:29:54.016Z,99466.02
2023-02-27T07:32:46.391Z,99464.08
2023-02-27T07:35:38.784Z,99465.23
2023-02-27T07:38:32.320Z,99471.42
2023-02-27T07:41:30.382Z,99468.70
2023-02-27T07:44:23.420Z,99463.91
2023-02-27T07:47:17.625Z,99460.39
2023-02-27T07:49:55.070Z,99467.83
2023-02-27T07:52:47.363Z,99469.77
2023-02-27T07:55:39.496Z,99472.98
2023-02-27T07:58:31.585Z,99471.85
2023-02-27T08:01:23.719Z,99474.67
2023-02-27T08:04:15.942Z,99479.63
2023-02-27T08:07:08.276Z,99481.09
2023-02-27T08:10:00.353Z,99483.15
2023-02-27T08:12:32.595Z,99485.16
2023-02-27T08:15:25.466Z,99488.41
2023-02-27T08:18:06.605Z,99491.70
2023-02-27T08:20:59.219Z,99491.41
2023-02-27T08:23:51.603Z,99498.56
2023-02-27T08:26:43.688Z,99507.71
2023-02-27T08:29:36.029Z,99510.65
2023-02-27T08:32:28.417Z,99518.71
2023-02-27T08:35:20.975Z,99518.91
2023-02-27T08:38:13.135Z,99525.85
2023-02-27T08:41:05.692Z,99526.82
2023-02-27T08:43:58.116Z,99526.77
2023-02-27T08:46:50.523Z,99533.17
2023-02-27T08:49:42.582Z,99535.91
2023-02-27T08:52:34.647Z,99538.31
2023-02-27T08:55:26.777Z,99539.73
2023-02-27T08:58:19.294Z,99543.81
2023-02-27T09:01:11.688Z,99540.67
2023-02-27T09:04:05.483Z,99544.21
2023-02-27T09:06:58.470Z,99545.92
2023-02-27T09:09:50.608Z,99552.91
2023-02-27T09:12:40.364Z,99558.14
2023-02-27T09:15:32.991Z,99557.20
2023-02-27T09:18:06.866Z,99560.45
2023-02-27T09:20:57.510Z,99560.61
2023-02-27T09:23:49.717Z,99561.98
2023-02-27T09:26:46.143Z,99561.19
2023-02-27T09:29:38.720Z,99552.82
2023-02-27T09:32:31.029Z,99550.41
2023-02-27T09:35:23.334Z,99541.11
2023-02-27T09:38:15.400Z,99547.88
2023-02-27T09:41:08.811Z,99545.49
2023-02-27T09:44:01.581Z,99544.70
2023-02-27T09:46:55.597Z,99547.02
2023-02-27T09:49:58.834Z,99550.02
2023-02-27T09:52:51.017Z,99550.70
2023-02-27T09:55:46.581Z,99551.31
2023-02-27T09:58:52.322Z,99544.55
2023-02-27T10:01:49.988Z,99545.89
2023-02-27T10:04:50.797Z,99546.11
2023-02-27T10:07:57.109Z,99549.61
2023-02-27T10:11:00.394Z,99546.77
2023-02-27T10:14:00.924Z,99551.52
2023-02-27T10:16:55.073Z,99546.21
2023-02-27T10:19:48.234Z,99548.91
2023-02-27T10:22:45.480Z,99558.16
2023-02-27T10:25:45.263Z,99562.40
2023-02-27T10:28:37.411Z,99565.69
2023-02-27T10:31:34.386Z,99562.72
2023-02-27T10:34:16.189Z,99561.15
2023-02-27T10:37:12.900Z,99563.31
2023-02-27T10:39:57.485Z,99562.86
2023-02-27T10:42:50.762Z,99562.77
2023-02-27T10:45:43.916Z,99569.80
2023-02-27T10:48:36.133Z,99569.79
2023-02-27T10:51:31.280Z,99570.94
2023-02-27T10:54:28.062Z,99570.12
2023-02-27T10:57:31.398Z,99567.73
2023-02-27T11:00:46.105Z,99572.11
2023-02-27T11:03:41.495Z,99573.73
2023-02-27T11:06:34.935Z,99575.86
2023-02-27T11:09:30.122Z,99575.30
2023-02-27T11:12:27.578Z,99571.70
2023-02-27T11:15:28.021Z,99571.23
2023-02-27T11:18:28.768Z,99569.48
2023-02-27T11:21:24.565Z,99573.39
2023-02-27T11:24:22.591Z,99569.48
2023-02-27T11:27:26.847Z,99570.21
2023-02-27T11:30:28.263Z,99575.58
2023-02-27T11:33:22.619Z,99574.80
2023-02-27T11:36:17.452Z,99568.11
2023-02-27T11:39:23.498Z,99570.05
2023-02-27T11:42:21.759Z,99565.81
2023-02-27T11:45:02.327Z,99570.67
2023-02-27T11:48:00.342Z,99572.39
2023-02-27T11:51:20.346Z,99571.77
2023-02-27T11:54:32.443Z,99570.89
2023-02-27T11:57:29.072Z,99571.17
2023-02-27T12:00:25.182Z,99568.77
2023-02-27T12:03:24.219Z,99570.79
2023-02-27T12:06:20.822Z,99571.27
2023-02-27T12:09:32.593Z,99574.73
2023-02-27T12:12:30.359Z,99582.49
2023-02-27T12:15:28.893Z,99576.88
2023-02-27T12:18:24.926Z,99571.98
2023-02-27T12:21:20.768Z,99574.56
2023-02-27T12:24:19.710Z,99581.88
2023-02-27T12:27:19.351Z,99578.50
2023-02-27T12:30:18.883Z,99587.36
2023-02-27T12:32:59.065Z,99594.38
2023-02-27T12:35:59.194Z,99592.38
2023-02-27T12:38:51.531Z,99593.56
2023-02-27T12:42:04.022Z,99595.53
2023-02-27T12:45:20.285Z,99598.25
2023-02-27T12:48:25.820Z,99602.39
2023-02-27T12:51:32.554Z,99599.59
2023-02-27T12:54:36.864Z,99599.96
2023-02-27T12:57:40.261Z,99598.91
2023-02-27T13:00:41.816Z,99599.40
2023-02-27T13:03:49.311Z,99606.15
2023-02-27T13:06:47.427Z,99601.77
2023-02-27T13:09:48.622Z,99607.25
2023-02-27T13:12:48.078Z,99611.95
2023-02-27T13:15:46.219Z,99612.11
2023-02-27T13:18:45.443Z,99612.73
2023-02-27T13:21:41.613Z,99611.17
2023-02-27T13:24:35.284Z,99609.86
2023-02-27T13:27:33.717Z,99612.39
2023-02-27T13:30:31.450Z,99613.17
2023-02-27T13:33:30.961Z,99614.98
2023-02-27T13:36:27.505Z,99617.84
2023-02-27T13:39:42.465Z,99614.30
2023-02-27T13:42:40.121Z,99615.98
2023-02-27T13:45:58.197Z,99611.58
2023-02-27T13:48:54.607Z,99616.58
2023-02-27T13:51:53.406Z,99614.80
2023-02-27T13:54:45.846Z,99616.41
2023-02-27T13:57:39.255Z,99618.38
2023-02-27T14:00:34.092Z,99620.01
2023-02-27T14:03:30.029Z,99622.28
2023-02-27T14:06:24.329Z,99622.20
2023-02-27T14:09:21.501Z,99628.90
2023-02-27T14:12:00.808Z,99630.58
2023-02-27T14:14:53.489Z,99633.17
2023-02-27T14:17:47.048Z,99634.93
2023-02-27T14:20:54.691Z,99633.72
2023-02-27T14:23:47.588Z,99639.27
2023-02-27T14:26:41.728Z,99641.62
2023-02-27T14:29:34.082Z,99640.52
2023-02-27T14:32:31.172Z,99640.80
2023-02-27T14:35:23.598Z,99644.67
2023-02-27T14:38:20.357Z,99652.16
2023-02-27T14:41:48.152Z,99653.98
2023-02-27T14:44:45.062Z,99659.34
2023-02-27T14:47:40.324Z,99660.62
2023-02-27T14:50:36.647Z,99664.37
2023-02-27T14:53:29.522Z,99666.93
2023-02-27T14:56:20.773Z,99671.88
2023-02-27T14:59:25.536Z,99674.45
2023-02-27T15:02:24.866Z,99677.08
2023-02-27T15:05:23.844Z,99681.73
2023-02-27T15:08:21.209Z,99681.14
2023-02-27T15:11:18.364Z,99681.46
2023-02-27T15:14:21.182Z,99678.06
2023-02-27T15:17:20.267Z,99683.00
2023-02-27T15:20:29.678Z,99683.73
2023-02-27T15:23:28.036Z,99688.82
2023-02-27T15:26:20.142Z,99691.65
2023-02-27T15:29:27.110Z,99697.52
2023-02-27T15:32:42.938Z,99697.08
2023-02-27T15:35:42.740Z,99698.44
2023-02-27T15:38:38.019Z,99695.30
2023-02-27T15:41:30.290Z,99700.41
2023-02-27T15:44:25.761Z,99702.92
2023-02-27T15:47:25.075Z,99707.35
2023-02-27T15:50:29.329Z,99710.66
2023-02-27T15:53:23.757Z,99710.75
2023-02-27T15:56:16.550Z,99716.34
2023-02-27T15:59:12.632Z,99716.80
2023-02-27T16:02:05.237Z,99725.85
2023-02-27T16:04:57.811Z,99726.90
2023-02-27T16:07:51.038Z,99734.83
2023-02-27T16:10:45.946Z,99735.97
2023-02-27T16:13:42.303Z,99741.90
2023-02-27T16:16:36.151Z,99748.46
2023-02-27T16:19:27.986Z,99745.66
2023-02-27T16:22:21.589Z,99750.77
2023-02-27T16:25:22.204Z,99752.11
2023-02-27T16:27:54.240Z,99755.62
2023-02-27T16:30:46.351Z,99758.56
2023-02-27T16:33:39.328Z,99760.75
2023-02-27T16:36:37.522Z,99761.73
2023-02-27T16:39:13.639Z,99762.89
2023-02-27T16:42:05.754Z,99764.23
2023-02-27T16:44:57.907Z,99764.06
2023-02-27T16:47:52.112Z,99773.60
2023-02-27T16:50:45.271Z,99773.69
2023-02-27T16:53:37.374Z,99774.46
2023-02-27T16:56:13.594Z,99779.91
2023-02-27T16:59:05.790Z,99786.64
2023-02-27T17:01:58.629Z,99788.76
2023-02-27T17:04:52.164Z,99794.73
2023-02-27T17:07:44.693Z,99796.76
2023-02-27T17:10:37.088Z,99792.73
2023-02-27T17:13:29.299Z,99797.62
2023-02-27T17:16:21.424Z,99800.42
2023-02-27T17:19:14.212Z,99799.55
2023-02-27T17:21:55.815Z,99801.14
2023-02-27T17:24:47.859Z,99801.85
2023-02-27T17:27:40.219Z,99801.02
2023-02-27T17:30:32.320Z,99807.56
2023-02-27T17:33:24.483Z,99807.25
2023-02-27T17:36:16.704Z,99811.09
2023-02-27T17:39:11.286Z,99812.55
2023-02-27T17:42:03.621Z,99813.89
2023-02-27T17:44:55.801Z,99819.08
2023-02-27T17:47:48.308Z,99819.55
2023-02-27T17:50:41.658Z,99822.25
2023-02-27T17:53:33.109Z,99824.23
2023-02-27T17:56:26.008Z,99826.41
2023-02-27T17:59:19.644Z,99828.62
2023-02-27T18:01:55.646Z,99830.40
2023-02-27T18:04:56.663Z,99829.73
2023-02-27T18:07:28.831Z,99831.36
2023-02-27T18:10:21.472Z,99837.58
2023-02-27T18:13:13.766Z,99840.21
2023-02-27T18:15:54.962Z,99843.70
2023-02-27T18:18:47.959Z,99848.71
2023-02-27T18:21:42.279Z,99851.66
2023-02-27T18:24:35.442Z,99855.02
2023-02-27T18:27:29.184Z,99860.48
2023-02-27T18:30:22.105Z,99861.80
2023-02-27T18:33:14.169Z,99867.30
2023-02-27T18:36:06.837Z,99868.31
2023-02-27T18:38:48.119Z,99871.46
2023-02-27T18:41:40.689Z,99875.86
2023-02-27T18:44:32.974Z,99879.23
2023-02-27T18:47:25.472Z,99878.36
2023-02-27T18:50:18.059Z,99884.84
2023-02-27T18:53:10.171Z,99887.11
2023-02-27T18:56:06.748Z,99886.40
2023-02-27T18:59:03.013Z,99887.23
2023-02-27T19:01:55.178Z,99892.00
2023-02-27T19:04:48.200Z,99891.66
2023-02-27T19:07:40.760Z,99894.03
2023-02-27T19:10:34.862Z,99890.84
2023-02-27T19:13:13.661Z,99889.98
2023-02-27T19:16:06.870Z,99892.11
2023-02-27T19:18:59.901Z,99888.71
2023-02-27T19:21:52.087Z,99892.48
2023-02-27T19:24:45.349Z,99896.40
2023-02-27T19:27:38.062Z,99897.24
2023-02-27T19:30:30.239Z,99897.61
2023-02-27T19:33:23.033Z,99905.05
2023-02-27T19:36:17.722Z,99901.23
2023-02-27T19:39:11.679Z,99898.65
2023-02-27T19:42:03.937Z,99905.19
2023-02-27T19:44:56.124Z,99905.77
2023-02-27T19:47:48.258Z,99907.59
2023-02-27T19:50:42.035Z,99912.41
2023-02-27T19:53:35.679Z,99912.95
2023-02-27T19:56:30.615Z,99910.52
2023-02-27T19:59:24.630Z,99916.09
2023-02-27T20:02:16.764Z,99915.95
2023-02-27T20:05:12.096Z,99917.99
2023-02-27T20:08:04.444Z,99924.80
2023-02-27T20:10:58.531Z,99926.41
2023-02-27T20:13:49.465Z,99925.48
2023-02-27T20:16:42.362Z,99928.90
2023-02-27T20:19:34.748Z,99930.94
2023-02-27T20:22:27.454Z,99927.42
2023-02-27T20:25:19.843Z,99928.61
2023-02-27T20:27:54.802Z,99931.92
2023-02-27T20:30:46.899Z,99927.30
2023-02-27T20:33:39.328Z,99929.11
2023-02-27T20:36:31.448Z,99930.42
2023-02-27T20:39:24.347Z,99938.06
2023-02-27T20:42:17.123Z,99935.91
2023-02-27T20:45:11.926Z,99936.50
2023-02-27T20:47:48.233Z,99937.52
2023-02-27T20:50:41.243Z,99940.79
2023-02-27T20:53:33.983Z,99944.77
2023-02-27T20:56:29.052Z,99947.89
2023-02-27T20:59:23.421Z,99947.42
2023-02-27T21:02:15.845Z,99949.36
2023-02-27T21:05:09.537Z,99946.16
2023-02-27T21:08:01.662Z,99949.57
2023-02-27T21:10:54.515Z,99951.89
2023-02-27T21:13:47.284Z,99951.17
2023-02-27T21:16:40.842Z,99948.90
2023-02-27T21:19:33.235Z,99946.28
2023-02-27T21:22:25.470Z,99947.48
2023-02-27T21:25:17.839Z,99945.68
2023-02-27T21:28:10.157Z,99943.80
2023-02-27T21:31:07.792Z,99939.14
2023-02-27T21:34:01.447Z,99939.92
2023-02-27T21:36:54.094Z,99943.80
2023-02-27T21:39:50.514Z,99943.23
2023-02-27T21:42:43.543Z,99949.58
2023-02-27T21:45:37.155Z,99949.27
2023-02-27T21:48:29.959Z,99951.26
2023-02-27T21:51:38.231Z,99956.13
2023-02-27T21:54:31.413Z,99957.65
2023-02-27T21:57:23.489Z,99958.29
2023-02-27T22:00:16.807Z,99957.02
2023-02-27T22:03:08.966Z,99952.70
2023-02-27T22:06:01.091Z,99959.44
2023-02-27T22:08:57.402Z,99958.86
2023-02-27T22:11:50.106Z,99959.86
2023-02-27T22:14:43.511Z,99964.35
2023-02-27T22:17:35.585Z,99961.19
2023-02-27T22:20:27.705Z,99956.34
2023-02-27T22:23:19.934Z,99954.65
2023-02-27T22:26:14.770Z,99952.23
2023-02-27T22:29:07.640Z,99955.14
2023-02-27T22:31:42.475Z,99956.30
2023-02-27T22:34:34.805Z,99957.87
2023-02-27T22:37:27.122Z,99963.20
2023-02-27T22:40:20.337Z,99962.95
2023-02-27T22:43:12.452Z,99962.59
2023-02-27T22:46:05.032Z,99964.88
2023-02-27T22:48:58.890Z,99967.90
2023-02-27T22:51:52.053Z,99970.73
2023-02-27T22:54:44.454Z,99969.33
2023-02-27T22:57:36.536Z,99968.63
2023-02-27T23:00:29.114Z,99968.30
2023-02-27T23:03:21.159Z,99968.75
2023-02-27T23:06:15.238Z,99965.42
2023-02-27T23:09:07.221Z,99969.32
2023-02-27T23:12:02.068Z,99971.73
2023-02-27T23:14:54.544Z,99973.80
2023-02-27T23:17:57.975Z,99981.48
2023-02-27T23:20:50.671Z,99979.59
2023-02-27T23:23:43.078Z,99978.41
2023-02-27T23:26:37.587Z,99974.79
2023-02-27T23:29:29.764Z,99974.16
2023-02-27T23:32:21.967Z,99975.75
2023-02-27T23:35:16.236Z,99976.61
2023-02-27T23:38:08.642Z,99980.11
2023-02-27T23:41:05.191Z,99975.86
2023-02-27T23:43:57.524Z,99974.98
2023-02-27T23:46:49.777Z,99975.91
2023-02-27T23:49:42.524Z,99978.52
2023-02-27T23:52:34.646Z,99984.49
2023-02-27T23:55:29.272Z,99981.63
2023-02-27T23:58:21.376Z,99981.17
